createdAt,value
2018-10-16T00:00:50.851Z,70.33
2018-10-16T00:04:54.898Z,70.72
2018-10-16T00:08:59.056Z,70.17
2018-10-16T00:13:11.137Z,69.92
2018-10-16T00:17:15.088Z,70.51
2018-10-16T00:21:19.312Z,70.86
2018-10-16T00:25:24.431Z,70.41
2018-10-16T00:29:28.457Z,70.24
2018-10-16T00:33:32.353Z,70.48
2018-10-16T00:37:36.644Z,70.47
2018-10-16T00:41:41.076Z,71.02
2018-10-16T00:45:45.016Z,71.18
2018-10-16T00:49:49.154Z,71.22
2018-10-16T00:53:53.055Z,71.35
2018-10-16T00:57:56.965Z,71.65
2018-10-16T01:02:00.885Z,71.57
2018-10-16T01:06:04.826Z,71.79
2018-10-16T01:10:09.975Z,72.09
2018-10-16T01:14:13.857Z,72.54
2018-10-16T01:18:17.779Z,72.59
2018-10-16T01:22:22.026Z,72.94
2018-10-16T01:26:25.956Z,73.01
2018-10-16T01:30:30.005Z,72.89
2018-10-16T01:34:33.910Z,73.32
2018-10-16T01:38:37.832Z,72.88
2018-10-16T01:42:42.166Z,73.18
2018-10-16T01:46:46.277Z,72.63
2018-10-16T01:50:50.190Z,73.05
2018-10-16T01:54:54.180Z,73.02
2018-10-16T01:58:58.435Z,73.33
2018-10-16T02:03:02.412Z,72.58
2018-10-16T02:07:06.345Z,72.55
2018-10-16T02:11:10.351Z,73.43
2018-10-16T02:15:14.324Z,73.36
2018-10-16T02:19:18.266Z,73.39
2018-10-16T02:23:22.208Z,74.08
2018-10-16T02:27:26.205Z,73.94
2018-10-16T02:31:30.133Z,73.68
2018-10-16T02:35:34.072Z,74.19
2018-10-16T02:39:38.014Z,73.72
2018-10-16T02:43:41.980Z,73.86
2018-10-16T02:52:04.208Z,73.74
2018-10-16T02:56:08.922Z,74.39
2018-10-16T03:00:12.849Z,74.29
2018-10-16T03:04:17.453Z,73.75
2018-10-16T03:08:21.411Z,73.95
2018-10-16T03:12:25.350Z,74.46
2018-10-16T03:16:29.353Z,73.98
2018-10-16T03:20:33.329Z,74.30
2018-10-16T03:24:37.348Z,74.87
2018-10-16T03:28:41.589Z,74.97
2018-10-16T03:32:45.564Z,75.17
2018-10-16T03:36:49.555Z,76.38
2018-10-16T03:40:53.549Z,75.48
2018-10-16T03:44:57.483Z,75.90
2018-10-16T03:49:01.408Z,75.88
2018-10-16T03:53:06.017Z,75.75
2018-10-16T03:57:10.034Z,75.53
2018-10-16T04:01:14.298Z,76.07
2018-10-16T04:05:18.186Z,75.85
2018-10-16T04:09:22.122Z,76.02
2018-10-16T04:13:26.364Z,76.38
2018-10-16T04:17:30.268Z,76.20
2018-10-16T04:21:39.230Z,76.62
2018-10-16T04:25:43.527Z,76.62
2018-10-16T04:29:51.001Z,76.22
2018-10-16T04:33:58.663Z,76.53
2018-10-16T04:38:03.746Z,76.94
2018-10-16T04:42:11.599Z,77.12
2018-10-16T04:46:15.894Z,76.72
2018-10-16T04:50:25.942Z,76.93
2018-10-16T04:54:36.939Z,77.02
2018-10-16T04:58:43.021Z,76.94
2018-10-16T05:02:49.576Z,76.63
2018-10-16T05:06:54.255Z,77.00
2018-10-16T05:10:59.820Z,77.22
2018-10-16T05:15:06.167Z,77.83
2018-10-16T05:19:10.226Z,77.81
2018-10-16T05:23:14.140Z,77.31
2018-10-16T05:27:22.147Z,77.98
2018-10-16T05:31:26.324Z,78.48
2018-10-16T05:35:30.094Z,78.34
2018-10-16T05:39:35.332Z,78.77
2018-10-16T05:43:39.306Z,78.50
2018-10-16T05:47:48.092Z,78.44
2018-10-16T05:51:52.050Z,78.36
2018-10-16T05:56:03.139Z,78.25
2018-10-16T06:00:18.982Z,78.24
2018-10-16T06:04:22.966Z,78.08
2018-10-16T06:08:29.152Z,78.06
2018-10-16T06:12:33.873Z,78.22
2018-10-16T06:16:38.182Z,77.80
2018-10-16T06:20:46.639Z,77.63
2018-10-16T06:24:53.632Z,77.83
2018-10-16T06:29:09.335Z,77.58
2018-10-16T06:33:14.085Z,77.56
2018-10-16T06:37:19.529Z,77.88
2018-10-16T06:41:24.478Z,77.67
2018-10-16T06:45:29.348Z,77.90
2018-10-16T06:49:36.061Z,79.33
2018-10-16T06:53:40.980Z,79.76
2018-10-16T06:57:48.890Z,79.79
2018-10-16T07:01:57.670Z,79.69
2018-10-16T07:06:02.743Z,79.91
2018-10-16T07:10:11.070Z,79.48
2018-10-16T07:14:18.021Z,79.38
2018-10-16T07:18:22.404Z,79.65
2018-10-16T07:22:30.879Z,79.57
2018-10-16T07:26:35.489Z,79.50
2018-10-16T07:30:41.904Z,79.69
2018-10-16T07:34:46.420Z,80.60
2018-10-16T07:38:50.436Z,82.14
2018-10-16T07:42:54.809Z,82.01
2018-10-16T07:46:59.974Z,81.35
2018-10-16T07:51:04.227Z,80.47
2018-10-16T07:55:11.493Z,79.05
2018-10-16T07:59:15.554Z,78.04
2018-10-16T08:03:21.920Z,77.56
2018-10-16T08:07:26.004Z,76.71
2018-10-16T08:11:30.185Z,75.84
2018-10-16T08:15:35.254Z,76.21
2018-10-16T08:19:40.433Z,75.22
2018-10-16T08:23:44.619Z,74.86
2018-10-16T08:27:49.602Z,73.37
2018-10-16T08:31:57.240Z,71.75
2018-10-16T08:36:05.293Z,71.52
2018-10-16T08:40:09.624Z,70.25
2018-10-16T08:44:26.150Z,69.47
2018-10-16T08:48:45.706Z,68.32
2018-10-16T08:52:52.546Z,66.50
2018-10-16T08:56:56.652Z,65.41
2018-10-16T09:01:00.846Z,64.79
2018-10-16T09:05:06.859Z,63.87
2018-10-16T09:09:16.071Z,64.38
2018-10-16T09:13:20.874Z,63.08
2018-10-16T09:17:28.440Z,63.54
2018-10-16T09:21:33.421Z,62.63
2018-10-16T09:25:42.323Z,61.84
2018-10-16T09:29:57.374Z,60.99
2018-10-16T09:34:05.012Z,60.56
2018-10-16T09:38:10.775Z,59.43
2018-10-16T09:42:20.503Z,60.36
2018-10-16T09:46:29.456Z,56.59
2018-10-16T09:50:37.304Z,48.10
2018-10-16T09:54:42.234Z,44.48
2018-10-16T09:58:52.035Z,42.09
2018-10-16T10:03:01.747Z,34.85
2018-10-16T10:07:17.780Z,33.43
2018-10-16T10:11:23.021Z,31.45
2018-10-16T10:15:31.194Z,30.52
2018-10-16T10:19:40.853Z,31.52
2018-10-16T10:23:45.541Z,31.82
2018-10-16T10:27:53.433Z,32.94
2018-10-16T10:32:09.851Z,35.28
2018-10-16T10:36:17.891Z,35.00
2018-10-16T10:40:28.119Z,31.86
2018-10-16T10:44:38.053Z,27.33
2018-10-16T10:48:47.424Z,27.09
2018-10-16T10:52:51.758Z,24.90
2018-10-16T10:57:09.079Z,26.62
2018-10-16T11:01:16.735Z,28.73
2018-10-16T11:05:21.605Z,29.86
2018-10-16T11:09:25.892Z,27.72
2018-10-16T11:18:04.732Z,24.39
2018-10-16T11:22:08.752Z,24.14
2018-10-16T11:26:12.775Z,22.77
2018-10-16T11:30:16.827Z,24.75
2018-10-16T11:34:20.929Z,24.08
2018-10-16T11:38:25.215Z,22.16
2018-10-16T11:42:29.341Z,24.69
2018-10-16T11:46:33.397Z,27.41
2018-10-16T11:50:37.356Z,27.22
2018-10-16T11:54:41.402Z,25.83
2018-10-16T11:58:45.387Z,27.43
2018-10-16T12:02:49.517Z,27.53
2018-10-16T12:06:53.419Z,28.17
2018-10-16T12:10:57.358Z,27.65
2018-10-16T12:15:01.234Z,27.04
2018-10-16T12:19:09.985Z,28.47
2018-10-16T12:23:13.805Z,29.32
2018-10-16T12:27:17.699Z,27.43
2018-10-16T12:31:21.630Z,23.11
2018-10-16T12:35:26.918Z,24.93
2018-10-16T12:39:31.187Z,25.49
2018-10-16T12:43:35.833Z,23.63
2018-10-16T12:47:40.981Z,25.59
2018-10-16T12:51:45.594Z,26.89
2018-10-16T12:55:49.505Z,26.50
2018-10-16T12:59:53.374Z,26.85
2018-10-16T13:03:57.297Z,27.26
2018-10-16T13:08:01.250Z,29.02
2018-10-16T13:12:05.101Z,29.21
2018-10-16T13:16:09.106Z,31.33
2018-10-16T13:20:14.141Z,31.49
2018-10-16T13:24:17.972Z,31.05
2018-10-16T13:28:22.139Z,29.63
2018-10-16T13:32:26.037Z,31.59
2018-10-16T13:36:29.909Z,33.18
2018-10-16T13:40:34.334Z,33.99
2018-10-16T13:44:38.344Z,33.72
2018-10-16T13:48:42.450Z,34.42
2018-10-16T13:52:46.674Z,33.16
2018-10-16T13:56:50.586Z,29.87
2018-10-16T14:00:54.338Z,27.45
2018-10-16T14:04:58.210Z,24.37
2018-10-16T14:09:01.917Z,21.95
2018-10-16T14:13:06.274Z,22.65
2018-10-16T14:17:10.629Z,23.59
2018-10-16T14:21:14.445Z,24.51
2018-10-16T14:25:18.229Z,27.19
2018-10-16T14:29:22.057Z,29.33
2018-10-16T14:33:26.284Z,31.66
2018-10-16T14:37:30.126Z,33.18
2018-10-16T14:41:34.265Z,34.26
2018-10-16T14:45:38.139Z,33.92
2018-10-16T14:49:42.604Z,35.45
2018-10-16T14:53:46.439Z,34.87
2018-10-16T14:57:51.254Z,34.95
2018-10-16T15:01:54.980Z,36.09
2018-10-16T15:05:58.901Z,36.81
2018-10-16T15:10:02.818Z,36.48
2018-10-16T15:14:06.837Z,36.82
2018-10-16T15:18:10.627Z,36.79
2018-10-16T15:22:14.667Z,37.61
2018-10-16T15:26:18.413Z,37.11
2018-10-16T15:30:22.214Z,37.60
2018-10-16T15:34:26.053Z,37.76
2018-10-16T15:38:29.851Z,39.00
2018-10-16T15:42:34.517Z,38.81
2018-10-16T15:46:39.076Z,39.30
2018-10-16T15:50:44.156Z,39.67
2018-10-16T15:54:48.014Z,39.70
2018-10-16T15:59:06.552Z,40.61
2018-10-16T16:03:10.377Z,40.41
2018-10-16T16:07:14.185Z,40.80
2018-10-16T16:11:18.013Z,41.01
2018-10-16T16:15:21.924Z,41.32
2018-10-16T16:19:26.281Z,41.24
2018-10-16T16:23:30.095Z,41.65
2018-10-16T16:27:33.894Z,41.60
2018-10-16T16:31:37.737Z,42.38
2018-10-16T16:35:42.649Z,42.31
2018-10-16T16:39:46.812Z,42.87
2018-10-16T16:43:50.822Z,43.77
2018-10-16T16:47:54.462Z,44.39
2018-10-16T16:51:58.240Z,46.00
2018-10-16T16:56:02.132Z,46.89
2018-10-16T17:00:05.896Z,48.11
2018-10-16T17:04:09.730Z,47.78
2018-10-16T17:08:13.523Z,48.35
2018-10-16T17:12:17.324Z,49.67
2018-10-16T17:16:21.158Z,50.51
2018-10-16T17:20:25.036Z,51.01
2018-10-16T17:24:28.961Z,51.03
2018-10-16T17:28:32.769Z,51.79
2018-10-16T17:32:37.141Z,51.79
2018-10-16T17:36:40.958Z,52.47
2018-10-16T17:40:45.086Z,53.00
2018-10-16T17:44:48.910Z,52.59
2018-10-16T17:48:52.804Z,54.85
2018-10-16T17:52:56.752Z,56.37
2018-10-16T17:57:00.778Z,56.41
2018-10-16T18:01:04.527Z,56.76
2018-10-16T18:05:08.349Z,57.04
2018-10-16T18:09:12.946Z,56.63
2018-10-16T18:13:16.615Z,57.85
2018-10-16T18:17:20.529Z,56.77
2018-10-16T18:21:24.313Z,57.76
2018-10-16T18:25:28.108Z,57.11
2018-10-16T18:29:32.237Z,58.47
2018-10-16T18:33:36.378Z,58.08
2018-10-16T18:37:41.206Z,58.64
2018-10-16T18:41:45.348Z,58.73
2018-10-16T18:45:49.141Z,58.92
2018-10-16T18:49:52.965Z,59.19
2018-10-16T18:53:56.793Z,59.68
2018-10-16T18:58:00.649Z,60.35
2018-10-16T19:02:04.540Z,61.14
2018-10-16T19:06:08.625Z,61.39
2018-10-16T19:10:12.658Z,61.19
2018-10-16T19:14:16.640Z,62.13
2018-10-16T19:18:20.448Z,62.36
2018-10-16T19:22:24.254Z,62.17
2018-10-16T19:26:28.083Z,62.34
2018-10-16T19:30:32.285Z,63.14
2018-10-16T19:34:36.169Z,62.62
2018-10-16T19:38:40.113Z,62.63
2018-10-16T19:42:43.955Z,62.77
2018-10-16T19:46:48.206Z,62.39
2018-10-16T19:50:52.098Z,62.83
2018-10-16T19:54:56.382Z,63.05
2018-10-16T19:59:00.254Z,63.09
2018-10-16T20:03:04.097Z,62.96
2018-10-16T20:07:07.852Z,63.71
2018-10-16T20:11:11.711Z,63.81
2018-10-16T20:15:15.494Z,64.15
2018-10-16T20:19:19.538Z,64.20
2018-10-16T20:23:23.348Z,64.24
2018-10-16T20:27:27.157Z,64.30
2018-10-16T20:31:30.950Z,63.89
2018-10-16T20:35:34.718Z,64.42
2018-10-16T20:39:38.803Z,66.44
2018-10-16T20:43:42.583Z,66.82
2018-10-16T20:47:46.377Z,66.74
2018-10-16T20:51:50.214Z,66.83
2018-10-16T20:55:54.038Z,67.27
2018-10-16T20:59:58.087Z,67.45
2018-10-16T21:04:02.838Z,67.75
2018-10-16T21:08:06.686Z,68.30
2018-10-16T21:12:10.569Z,67.30
2018-10-16T21:16:14.342Z,67.66
2018-10-16T21:20:18.162Z,67.42
2018-10-16T21:24:22.110Z,67.30
2018-10-16T21:28:25.925Z,67.96
2018-10-16T21:32:29.793Z,67.12
2018-10-16T21:36:33.881Z,67.07
2018-10-16T21:40:37.757Z,67.44
2018-10-16T21:44:41.799Z,67.16
2018-10-16T21:48:45.601Z,67.74
2018-10-16T21:52:49.385Z,67.61
2018-10-16T21:56:53.494Z,67.22
2018-10-16T22:01:02.727Z,67.74
2018-10-16T22:05:06.455Z,69.21
2018-10-16T22:09:14.665Z,70.36
2018-10-16T22:13:18.537Z,70.46
2018-10-16T22:17:24.273Z,69.95
2018-10-16T22:21:28.068Z,69.08
2018-10-16T22:25:32.149Z,68.41
2018-10-16T22:29:35.976Z,68.33
2018-10-16T22:33:40.693Z,68.00
2018-10-16T22:37:44.678Z,67.62
2018-10-16T22:41:49.088Z,67.42
2018-10-16T22:45:53.152Z,67.23
2018-10-16T22:49:57.282Z,67.46
2018-10-16T22:54:01.472Z,67.54
2018-10-16T22:58:05.749Z,67.42
2018-10-16T23:02:09.821Z,67.28
2018-10-16T23:06:13.903Z,67.62
2018-10-16T23:10:18.089Z,67.72
2018-10-16T23:14:22.197Z,67.77
2018-10-16T23:18:26.470Z,68.02
2018-10-16T23:22:30.602Z,68.19
2018-10-16T23:26:34.971Z,68.30
2018-10-16T23:30:39.129Z,68.48
2018-10-16T23:34:43.505Z,68.28
2018-10-16T23:38:47.808Z,68.21
2018-10-16T23:42:51.798Z,68.88
2018-10-16T23:46:55.801Z,69.96
2018-10-16T23:51:00.148Z,70.43
2018-10-16T23:55:05.809Z,69.83
2018-10-16T23:59:09.868Z,70.00
